Pagina principale
METAR-TAF:

METAR-TAF

Aeroporti :

Aeroporto di Pantelleria

Pantelleria, Italia

latitudine: 36-49N, longitudine: 011-58E, altezza: 191 m

Osservazione

Il bollettino è stato emesso 8 ore e 37 minuti fa, alle 18:50 UTC
Vento 1 kt da direzioni variabili
Temperature 11°C
Umidità 87%
Pressione 1026 hPa
Visibilità 10 km o più
Poco nuvoloso ad un'altezza di 500 ft

METAR: LICG 261850Z VRB01KT 9999 FEW005 11/09 Q1026

Ora: 04:27 (03:27 UTC)

Previsione

Il bollettino è stato emesso 10 ore e 27 minuti fa, alle 17:00 UTC
Previsione valida dal 26 alle 18 UTC al 27 alle 03 UTC
Vento 5 kt da direzioni variabili
Visibilità: 8000 m
Nubi sparse ad un'altezza di 1000 ft

TAF: LICG 261700Z 2618/2703 VRB05KT 8000 SCT010

Osservazioni e previsioni meteorologiche di più di 4000 aeroporti (messaggi METAR e TAF).

Le stazioni disponibili sono rappresentate dai dischi gialli e rossi sulla carta.

Puntare il mouse per vedere il nome della stazione.

Clicca sopra per visualizzare le osservazioni e previsioni meteorologiche.

Per cambiare la mappa : fare clic sui pulsanti verdi con una croce nera per ingrandire, il pulsante verde con un trattino per diminuire, o sulla freccia verde per le mappe adiacenti.


METAR-TAF: